sensor_id;sensor_type;location;lat;lon;timestamp;pressure;altitude;pressure_sealevel;temperature;humidity
52935;BME280;38802;50.198;19.796;2023-06-26T00:00:11;96279.05;;;16.85;65.68
52935;BME280;38802;50.198;19.796;2023-06-26T00:02:59;96280.57;;;16.82;65.72
52935;BME280;38802;50.198;19.796;2023-06-26T00:05:28;96280.27;;;16.80;65.68
52935;BME280;38802;50.198;19.796;2023-06-26T00:07:58;96278.52;;;16.79;65.59
52935;BME280;38802;50.198;19.796;2023-06-26T00:10:28;96277.61;;;16.76;65.60
52935;BME280;38802;50.198;19.796;2023-06-26T00:12:56;96271.84;;;16.74;65.51
52935;BME280;38802;50.198;19.796;2023-06-26T00:15:25;96273.48;;;16.72;65.52
52935;BME280;38802;50.198;19.796;2023-06-26T00:17:54;96270.00;;;16.70;65.59
52935;BME280;38802;50.198;19.796;2023-06-26T00:20:36;96268.98;;;16.68;65.45
52935;BME280;38802;50.198;19.796;2023-06-26T00:23:15;96271.31;;;16.68;65.28
52935;BME280;38802;50.198;19.796;2023-06-26T00:25:44;96275.30;;;16.64;65.48
52935;BME280;38802;50.198;19.796;2023-06-26T00:28:12;96275.30;;;16.62;65.40
52935;BME280;38802;50.198;19.796;2023-06-26T00:30:40;96273.52;;;16.61;65.50
52935;BME280;38802;50.198;19.796;2023-06-26T00:33:08;96275.33;;;16.59;65.48
52935;BME280;38802;50.198;19.796;2023-06-26T00:35:36;96276.44;;;16.57;65.48
52935;BME280;38802;50.198;19.796;2023-06-26T00:38:06;96277.06;;;16.56;65.56
52935;BME280;38802;50.198;19.796;2023-06-26T00:40:34;96276.96;;;16.55;65.67
52935;BME280;38802;50.198;19.796;2023-06-26T00:43:02;96275.35;;;16.54;65.66
52935;BME280;38802;50.198;19.796;2023-06-26T00:45:30;96274.85;;;16.53;65.46
52935;BME280;38802;50.198;19.796;2023-06-26T00:48:10;96273.48;;;16.50;65.45
52935;BME280;38802;50.198;19.796;2023-06-26T00:50:42;96273.25;;;16.47;65.49
52935;BME280;38802;50.198;19.796;2023-06-26T00:53:11;96273.62;;;16.42;65.48
52935;BME280;38802;50.198;19.796;2023-06-26T00:55:39;96268.05;;;16.38;65.66
52935;BME280;38802;50.198;19.796;2023-06-26T00:58:09;96271.90;;;16.35;65.67
52935;BME280;38802;50.198;19.796;2023-06-26T01:00:38;96270.73;;;16.31;65.67
52935;BME280;38802;50.198;19.796;2023-06-26T01:03:07;96270.20;;;16.27;65.68
52935;BME280;38802;50.198;19.796;2023-06-26T01:05:35;96269.58;;;16.25;65.77
52935;BME280;38802;50.198;19.796;2023-06-26T01:08:03;96270.19;;;16.23;65.65
52935;BME280;38802;50.198;19.796;2023-06-26T01:10:31;96265.06;;;16.20;65.69
52935;BME280;38802;50.198;19.796;2023-06-26T01:13:01;96260.00;;;16.20;65.77
52935;BME280;38802;50.198;19.796;2023-06-26T01:15:33;96260.33;;;16.18;65.76
52935;BME280;38802;50.198;19.796;2023-06-26T01:18:02;96260.35;;;16.18;65.93
52935;BME280;38802;50.198;19.796;2023-06-26T01:20:36;96258.05;;;16.18;65.90
52935;BME280;38802;50.198;19.796;2023-06-26T01:23:14;96256.44;;;16.18;65.87
52935;BME280;38802;50.198;19.796;2023-06-26T01:28:43;96250.95;;;16.16;65.89
52935;BME280;38802;50.198;19.796;2023-06-26T01:31:12;96251.20;;;16.15;65.92
52935;BME280;38802;50.198;19.796;2023-06-26T01:33:41;96248.12;;;16.14;65.87
52935;BME280;38802;50.198;19.796;2023-06-26T01:36:10;96250.02;;;16.13;65.96
52935;BME280;38802;50.198;19.796;2023-06-26T01:38:38;96248.70;;;16.12;65.85
52935;BME280;38802;50.198;19.796;2023-06-26T01:41:06;96243.77;;;16.11;65.88
52935;BME280;38802;50.198;19.796;2023-06-26T01:46:17;96243.98;;;16.05;65.97
52935;BME280;38802;50.198;19.796;2023-06-26T01:49:01;96241.82;;;16.02;65.97
52935;BME280;38802;50.198;19.796;2023-06-26T01:51:35;96240.04;;;16.01;66.05
52935;BME280;38802;50.198;19.796;2023-06-26T01:54:09;96241.84;;;15.98;66.11
52935;BME280;38802;50.198;19.796;2023-06-26T01:56:38;96242.45;;;15.96;66.16
52935;BME280;38802;50.198;19.796;2023-06-26T01:59:09;96243.23;;;15.94;66.32
52935;BME280;38802;50.198;19.796;2023-06-26T02:01:38;96239.90;;;15.90;66.22
52935;BME280;38802;50.198;19.796;2023-06-26T02:04:06;96242.26;;;15.88;66.33
52935;BME280;38802;50.198;19.796;2023-06-26T02:06:34;96240.71;;;15.86;66.36
52935;BME280;38802;50.198;19.796;2023-06-26T02:09:02;96239.55;;;15.82;66.40
52935;BME280;38802;50.198;19.796;2023-06-26T02:11:32;96237.55;;;15.81;66.46
52935;BME280;38802;50.198;19.796;2023-06-26T02:14:00;96236.09;;;15.80;66.52
52935;BME280;38802;50.198;19.796;2023-06-26T02:16:28;96235.89;;;15.80;66.72
52935;BME280;38802;50.198;19.796;2023-06-26T02:18:57;96236.09;;;15.78;66.62
52935;BME280;38802;50.198;19.796;2023-06-26T02:21:25;96233.79;;;15.77;66.68
52935;BME280;38802;50.198;19.796;2023-06-26T02:23:56;96232.27;;;15.73;66.63
52935;BME280;38802;50.198;19.796;2023-06-26T02:26:25;96235.48;;;15.71;66.68
52935;BME280;38802;50.198;19.796;2023-06-26T02:28:53;96235.57;;;15.72;66.84
52935;BME280;38802;50.198;19.796;2023-06-26T02:31:21;96232.91;;;15.70;66.72
52935;BME280;38802;50.198;19.796;2023-06-26T02:33:49;96231.30;;;15.70;66.98
52935;BME280;38802;50.198;19.796;2023-06-26T02:36:17;96235.30;;;15.71;66.81
52935;BME280;38802;50.198;19.796;2023-06-26T02:38:45;96235.54;;;15.70;66.73
52935;BME280;38802;50.198;19.796;2023-06-26T02:41:13;96234.48;;;15.70;66.79
52935;BME280;38802;50.198;19.796;2023-06-26T02:43:42;96232.48;;;15.73;66.91
52935;BME280;38802;50.198;19.796;2023-06-26T02:46:09;96233.61;;;15.75;66.90
52935;BME280;38802;50.198;19.796;2023-06-26T02:48:37;96232.44;;;15.78;66.81
52935;BME280;38802;50.198;19.796;2023-06-26T02:51:06;96231.98;;;15.79;66.81
52935;BME280;38802;50.198;19.796;2023-06-26T02:53:35;96233.47;;;15.80;66.86
52935;BME280;38802;50.198;19.796;2023-06-26T02:56:04;96230.31;;;15.80;66.90
52935;BME280;38802;50.198;19.796;2023-06-26T02:58:33;96231.27;;;15.81;67.03
52935;BME280;38802;50.198;19.796;2023-06-26T03:01:01;96232.94;;;15.80;66.93
52935;BME280;38802;50.198;19.796;2023-06-26T03:03:29;96234.45;;;15.81;67.04
52935;BME280;38802;50.198;19.796;2023-06-26T03:05:57;96235.48;;;15.81;66.98
52935;BME280;38802;50.198;19.796;2023-06-26T03:08:26;96232.06;;;15.83;67.01
52935;BME280;38802;50.198;19.796;2023-06-26T03:10:54;96232.04;;;15.84;67.05
52935;BME280;38802;50.198;19.796;2023-06-26T03:13:22;96231.91;;;15.83;67.16
52935;BME280;38802;50.198;19.796;2023-06-26T03:15:50;96232.80;;;15.83;67.24
52935;BME280;38802;50.198;19.796;2023-06-26T03:18:18;96233.02;;;15.84;67.19
52935;BME280;38802;50.198;19.796;2023-06-26T03:20:46;96231.25;;;15.84;67.33
52935;BME280;38802;50.198;19.796;2023-06-26T03:23:16;96228.91;;;15.83;67.26
52935;BME280;38802;50.198;19.796;2023-06-26T03:25:44;96229.02;;;15.82;67.46
52935;BME280;38802;50.198;19.796;2023-06-26T03:28:23;96227.89;;;15.81;67.47
52935;BME280;38802;50.198;19.796;2023-06-26T03:30:51;96234.26;;;15.81;67.46
52935;BME280;38802;50.198;19.796;2023-06-26T03:33:19;96232.11;;;15.80;67.50
52935;BME280;38802;50.198;19.796;2023-06-26T03:35:47;96232.38;;;15.80;67.55
52935;BME280;38802;50.198;19.796;2023-06-26T03:38:15;96235.61;;;15.80;67.52
52935;BME280;38802;50.198;19.796;2023-06-26T03:40:44;96234.52;;;15.80;67.53
52935;BME280;38802;50.198;19.796;2023-06-26T03:43:12;96235.12;;;15.83;67.62
52935;BME280;38802;50.198;19.796;2023-06-26T03:45:46;96235.13;;;15.84;67.56
52935;BME280;38802;50.198;19.796;2023-06-26T03:48:14;96236.84;;;15.88;67.68
52935;BME280;38802;50.198;19.796;2023-06-26T03:50:42;96240.05;;;15.91;67.75
52935;BME280;38802;50.198;19.796;2023-06-26T03:53:10;96236.83;;;15.94;67.67
52935;BME280;38802;50.198;19.796;2023-06-26T03:55:40;96235.95;;;15.98;67.70
52935;BME280;38802;50.198;19.796;2023-06-26T03:58:08;96236.11;;;16.01;67.59
52935;BME280;38802;50.198;19.796;2023-06-26T04:00:37;96238.13;;;16.06;67.71
52935;BME280;38802;50.198;19.796;2023-06-26T04:03:05;96239.63;;;16.10;67.59
52935;BME280;38802;50.198;19.796;2023-06-26T04:05:34;96238.91;;;16.13;67.63
52935;BME280;38802;50.198;19.796;2023-06-26T04:08:02;96238.80;;;16.15;67.57
52935;BME280;38802;50.198;19.796;2023-06-26T04:10:30;96240.86;;;16.18;67.77
52935;BME280;38802;50.198;19.796;2023-06-26T04:12:59;96238.58;;;16.22;67.76
52935;BME280;38802;50.198;19.796;2023-06-26T04:15:27;96243.70;;;16.24;67.90
52935;BME280;38802;50.198;19.796;2023-06-26T04:17:55;96245.71;;;16.24;67.91
52935;BME280;38802;50.198;19.796;2023-06-26T04:20:23;96246.33;;;16.24;68.12
52935;BME280;38802;50.198;19.796;2023-06-26T04:22:51;96247.59;;;16.24;68.12
52935;BME280;38802;50.198;19.796;2023-06-26T04:25:20;96245.38;;;16.25;68.37
52935;BME280;38802;50.198;19.796;2023-06-26T04:27:48;96243.35;;;16.26;68.60
52935;BME280;38802;50.198;19.796;2023-06-26T04:30:16;96241.64;;;16.27;68.69
52935;BME280;38802;50.198;19.796;2023-06-26T04:32:44;96243.48;;;16.30;68.74
52935;BME280;38802;50.198;19.796;2023-06-26T04:35:12;96242.05;;;16.32;68.83
52935;BME280;38802;50.198;19.796;2023-06-26T04:37:40;96240.05;;;16.34;69.01
52935;BME280;38802;50.198;19.796;2023-06-26T04:40:09;96236.56;;;16.38;69.10
52935;BME280;38802;50.198;19.796;2023-06-26T04:42:39;96236.93;;;16.42;68.98
52935;BME280;38802;50.198;19.796;2023-06-26T04:45:07;96236.92;;;16.47;68.92
52935;BME280;38802;50.198;19.796;2023-06-26T04:47:35;96233.81;;;16.53;68.87
52935;BME280;38802;50.198;19.796;2023-06-26T04:50:03;96233.82;;;16.60;68.68
52935;BME280;38802;50.198;19.796;2023-06-26T04:52:32;96228.38;;;16.67;68.57
52935;BME280;38802;50.198;19.796;2023-06-26T04:55:00;96229.64;;;16.75;68.40
52935;BME280;38802;50.198;19.796;2023-06-26T04:57:28;96233.13;;;16.83;68.36
52935;BME280;38802;50.198;19.796;2023-06-26T04:59:56;96231.03;;;16.93;68.27
52935;BME280;38802;50.198;19.796;2023-06-26T05:02:24;96229.62;;;17.06;68.29
52935;BME280;38802;50.198;19.796;2023-06-26T05:04:54;96231.20;;;17.18;68.01
52935;BME280;38802;50.198;19.796;2023-06-26T05:07:22;96231.38;;;17.30;67.82
52935;BME280;38802;50.198;19.796;2023-06-26T05:09:51;96229.90;;;17.42;67.75
52935;BME280;38802;50.198;19.796;2023-06-26T05:12:19;96232.89;;;17.54;67.76
52935;BME280;38802;50.198;19.796;2023-06-26T05:14:46;96229.93;;;17.67;67.75
52935;BME280;38802;50.198;19.796;2023-06-26T05:17:14;96227.96;;;17.82;67.57
52935;BME280;38802;50.198;19.796;2023-06-26T05:19:43;96233.19;;;17.99;67.80
52935;BME280;38802;50.198;19.796;2023-06-26T05:22:12;96231.25;;;18.20;67.84
52935;BME280;38802;50.198;19.796;2023-06-26T05:24:42;96229.29;;;18.40;67.76
52935;BME280;38802;50.198;19.796;2023-06-26T05:27:11;96231.86;;;18.60;67.51
52935;BME280;38802;50.198;19.796;2023-06-26T05:29:48;96224.55;;;18.81;67.21
52935;BME280;38802;50.198;19.796;2023-06-26T05:32:16;96225.96;;;18.98;66.44
52935;BME280;38802;50.198;19.796;2023-06-26T05:34:48;96227.35;;;19.18;66.97
52935;BME280;38802;50.198;19.796;2023-06-26T05:37:20;96233.67;;;19.41;66.88
52935;BME280;38802;50.198;19.796;2023-06-26T05:39:51;96230.53;;;19.65;66.71
52935;BME280;38802;50.198;19.796;2023-06-26T05:42:21;96235.27;;;19.88;66.68
52935;BME280;38802;50.198;19.796;2023-06-26T05:44:49;96228.02;;;20.10;66.30
52935;BME280;38802;50.198;19.796;2023-06-26T05:47:17;96228.11;;;20.31;66.17
52935;BME280;38802;50.198;19.796;2023-06-26T05:49:45;96226.84;;;20.53;65.32
52935;BME280;38802;50.198;19.796;2023-06-26T05:52:13;96221.69;;;20.68;63.65
52935;BME280;38802;50.198;19.796;2023-06-26T05:54:41;96223.39;;;20.87;64.57
52935;BME280;38802;50.198;19.796;2023-06-26T05:57:10;96224.15;;;21.10;64.43
52935;BME280;38802;50.198;19.796;2023-06-26T05:59:40;96222.36;;;21.30;63.86
52935;BME280;38802;50.198;19.796;2023-06-26T06:02:10;96221.14;;;21.50;63.59
52935;BME280;38802;50.198;19.796;2023-06-26T06:04:38;96217.59;;;21.68;63.50
52935;BME280;38802;50.198;19.796;2023-06-26T06:07:06;96218.55;;;21.85;62.68
52935;BME280;38802;50.198;19.796;2023-06-26T06:09:35;96218.62;;;22.00;62.26
52935;BME280;38802;50.198;19.796;2023-06-26T06:12:04;96215.84;;;22.19;61.88
52935;BME280;38802;50.198;19.796;2023-06-26T06:14:34;96213.60;;;22.37;61.93
52935;BME280;38802;50.198;19.796;2023-06-26T06:17:03;96208.63;;;22.53;62.05
52935;BME280;38802;50.198;19.796;2023-06-26T06:19:31;96211.37;;;22.76;61.12
52935;BME280;38802;50.198;19.796;2023-06-26T06:21:59;96208.50;;;22.91;60.81
52935;BME280;38802;50.198;19.796;2023-06-26T06:24:27;96210.58;;;23.05;59.99
52935;BME280;38802;50.198;19.796;2023-06-26T06:26:55;96214.70;;;23.13;59.50
52935;BME280;38802;50.198;19.796;2023-06-26T06:29:23;96214.27;;;23.26;59.06
52935;BME280;38802;50.198;19.796;2023-06-26T06:31:51;96216.40;;;23.37;57.70
52935;BME280;38802;50.198;19.796;2023-06-26T06:34:19;96218.38;;;23.45;57.95
52935;BME280;38802;50.198;19.796;2023-06-26T06:36:47;96214.73;;;23.55;57.38
52935;BME280;38802;50.198;19.796;2023-06-26T06:39:16;96214.81;;;23.63;57.02
52935;BME280;38802;50.198;19.796;2023-06-26T06:41:44;96217.48;;;23.72;57.41
52935;BME280;38802;50.198;19.796;2023-06-26T06:44:12;96215.66;;;23.85;57.25
52935;BME280;38802;50.198;19.796;2023-06-26T06:46:40;96220.79;;;23.98;56.64
52935;BME280;38802;50.198;19.796;2023-06-26T06:49:16;96220.51;;;24.06;56.22
52935;BME280;38802;50.198;19.796;2023-06-26T06:51:44;96218.55;;;24.21;56.51
52935;BME280;38802;50.198;19.796;2023-06-26T06:54:15;96211.10;;;24.34;55.67
52935;BME280;38802;50.198;19.796;2023-06-26T06:56:44;96215.70;;;24.40;54.10
52935;BME280;38802;50.198;19.796;2023-06-26T06:59:12;96217.55;;;24.45;54.76
52935;BME280;38802;50.198;19.796;2023-06-26T07:01:40;96220.36;;;24.55;54.83
52935;BME280;38802;50.198;19.796;2023-06-26T07:04:08;96218.48;;;24.67;54.86
52935;BME280;38802;50.198;19.796;2023-06-26T07:06:38;96215.17;;;24.81;54.81
52935;BME280;38802;50.198;19.796;2023-06-26T07:09:29;96213.65;;;24.93;54.26
52935;BME280;38802;50.198;19.796;2023-06-26T07:11:57;96214.11;;;24.98;53.47
52935;BME280;38802;50.198;19.796;2023-06-26T07:14:26;96214.36;;;25.06;52.87
52935;BME280;38802;50.198;19.796;2023-06-26T07:16:56;96215.20;;;25.15;53.19
52935;BME280;38802;50.198;19.796;2023-06-26T07:19:24;96210.33;;;25.20;52.68
52935;BME280;38802;50.198;19.796;2023-06-26T07:21:52;96211.77;;;25.30;53.16
52935;BME280;38802;50.198;19.796;2023-06-26T07:24:21;96210.38;;;25.46;52.71
52935;BME280;38802;50.198;19.796;2023-06-26T07:26:49;96211.55;;;25.55;51.57
52935;BME280;38802;50.198;19.796;2023-06-26T07:29:18;96211.16;;;25.59;51.76
52935;BME280;38802;50.198;19.796;2023-06-26T07:31:46;96209.56;;;25.65;51.28
52935;BME280;38802;50.198;19.796;2023-06-26T07:34:14;96208.22;;;25.69;51.51
52935;BME280;38802;50.198;19.796;2023-06-26T07:36:42;96211.59;;;25.77;50.80
52935;BME280;38802;50.198;19.796;2023-06-26T07:39:10;96212.53;;;25.77;48.70
52935;BME280;38802;50.198;19.796;2023-06-26T07:41:44;96213.34;;;25.82;49.31
52935;BME280;38802;50.198;19.796;2023-06-26T07:44:12;96212.89;;;25.92;49.33
52935;BME280;38802;50.198;19.796;2023-06-26T07:46:40;96208.44;;;25.94;48.89
52935;BME280;38802;50.198;19.796;2023-06-26T07:49:08;96210.42;;;26.01;48.79
52935;BME280;38802;50.198;19.796;2023-06-26T07:51:37;96210.66;;;26.09;48.32
52935;BME280;38802;50.198;19.796;2023-06-26T07:54:05;96213.92;;;26.11;47.63
52935;BME280;38802;50.198;19.796;2023-06-26T07:57:02;96213.66;;;26.02;47.83
52935;BME280;38802;50.198;19.796;2023-06-26T07:59:31;96213.19;;;26.14;47.75
52935;BME280;38802;50.198;19.796;2023-06-26T08:01:59;96210.59;;;26.24;47.53
52935;BME280;38802;50.198;19.796;2023-06-26T08:04:28;96212.70;;;26.29;46.17
52935;BME280;38802;50.198;19.796;2023-06-26T08:06:59;96214.31;;;26.34;46.58
52935;BME280;38802;50.198;19.796;2023-06-26T08:09:29;96209.88;;;26.29;46.37
52935;BME280;38802;50.198;19.796;2023-06-26T08:11:58;96211.06;;;26.29;46.23
52935;BME280;38802;50.198;19.796;2023-06-26T08:14:26;96207.29;;;26.41;46.89
52935;BME280;38802;50.198;19.796;2023-06-26T08:16:54;96206.30;;;26.57;46.32
52935;BME280;38802;50.198;19.796;2023-06-26T08:19:23;96206.26;;;26.68;46.32
52935;BME280;38802;50.198;19.796;2023-06-26T08:21:51;96207.71;;;26.81;45.79
52935;BME280;38802;50.198;19.796;2023-06-26T08:24:20;96208.70;;;26.84;45.62
52935;BME280;38802;50.198;19.796;2023-06-26T08:26:48;96207.47;;;26.75;46.29
52935;BME280;38802;50.198;19.796;2023-06-26T08:29:16;96209.80;;;26.56;45.38
52935;BME280;38802;50.198;19.796;2023-06-26T08:31:44;96210.77;;;26.24;45.44
52935;BME280;38802;50.198;19.796;2023-06-26T08:34:12;96211.05;;;26.03;46.00
52935;BME280;38802;50.198;19.796;2023-06-26T08:36:40;96214.23;;;26.11;45.83
52935;BME280;38802;50.198;19.796;2023-06-26T08:39:08;96207.29;;;26.26;45.60
52935;BME280;38802;50.198;19.796;2023-06-26T08:41:37;96204.13;;;26.44;45.23
52935;BME280;38802;50.198;19.796;2023-06-26T08:44:05;96200.86;;;26.55;45.11
52935;BME280;38802;50.198;19.796;2023-06-26T08:46:33;96203.33;;;26.72;44.45
52935;BME280;38802;50.198;19.796;2023-06-26T08:49:13;96202.80;;;26.77;44.92
52935;BME280;38802;50.198;19.796;2023-06-26T08:51:47;96203.56;;;26.83;44.72
52935;BME280;38802;50.198;19.796;2023-06-26T08:54:22;96206.23;;;26.67;45.11
52935;BME280;38802;50.198;19.796;2023-06-26T08:56:51;96206.68;;;26.33;44.51
52935;BME280;38802;50.198;19.796;2023-06-26T08:59:20;96213.20;;;25.90;44.55
52935;BME280;38802;50.198;19.796;2023-06-26T09:01:49;96211.88;;;25.61;45.41
52935;BME280;38802;50.198;19.796;2023-06-26T09:04:17;96212.41;;;25.39;45.70
52935;BME280;38802;50.198;19.796;2023-06-26T09:06:45;96209.31;;;25.37;45.95
52935;BME280;38802;50.198;19.796;2023-06-26T09:09:14;96205.80;;;25.52;45.87
52935;BME280;38802;50.198;19.796;2023-06-26T09:12:03;96199.45;;;25.68;45.80
52935;BME280;38802;50.198;19.796;2023-06-26T09:14:31;96203.21;;;25.80;45.63
52935;BME280;38802;50.198;19.796;2023-06-26T09:16:59;96199.38;;;25.89;44.56
52935;BME280;38802;50.198;19.796;2023-06-26T09:19:29;96199.98;;;25.97;44.76
52935;BME280;38802;50.198;19.796;2023-06-26T09:21:57;96197.45;;;26.08;44.79
52935;BME280;38802;50.198;19.796;2023-06-26T09:24:44;96192.44;;;26.20;44.19
52935;BME280;38802;50.198;19.796;2023-06-26T09:27:14;96192.27;;;26.30;43.94
52935;BME280;38802;50.198;19.796;2023-06-26T09:29:45;96194.08;;;26.41;43.61
52935;BME280;38802;50.198;19.796;2023-06-26T09:32:14;96193.51;;;26.46;43.63
52935;BME280;38802;50.198;19.796;2023-06-26T09:34:43;96189.89;;;26.51;43.53
52935;BME280;38802;50.198;19.796;2023-06-26T09:37:14;96193.09;;;26.61;43.78
52935;BME280;38802;50.198;19.796;2023-06-26T09:39:42;96192.34;;;26.67;43.72
52935;BME280;38802;50.198;19.796;2023-06-26T09:42:13;96191.83;;;26.72;43.85
52935;BME280;38802;50.198;19.796;2023-06-26T09:44:45;96190.80;;;26.80;44.09
52935;BME280;38802;50.198;19.796;2023-06-26T09:47:18;96191.17;;;26.76;43.68
52935;BME280;38802;50.198;19.796;2023-06-26T09:49:46;96188.48;;;26.58;42.81
52935;BME280;38802;50.198;19.796;2023-06-26T09:52:16;96190.85;;;26.36;43.45
52935;BME280;38802;50.198;19.796;2023-06-26T09:54:45;96192.55;;;26.19;43.65
52935;BME280;38802;50.198;19.796;2023-06-26T09:57:18;96190.33;;;26.06;43.58
52935;BME280;38802;50.198;19.796;2023-06-26T09:59:47;96189.52;;;26.14;43.16
52935;BME280;38802;50.198;19.796;2023-06-26T10:02:15;96181.86;;;26.22;43.38
52935;BME280;38802;50.198;19.796;2023-06-26T10:04:44;96181.42;;;26.30;42.88
52935;BME280;38802;50.198;19.796;2023-06-26T10:07:13;96178.13;;;26.30;42.92
52935;BME280;38802;50.198;19.796;2023-06-26T10:09:42;96178.44;;;26.37;43.11
52935;BME280;38802;50.198;19.796;2023-06-26T10:12:15;96180.36;;;26.37;43.58
52935;BME280;38802;50.198;19.796;2023-06-26T10:14:45;96176.03;;;26.39;43.12
52935;BME280;38802;50.198;19.796;2023-06-26T10:17:19;96172.71;;;26.20;43.38
52935;BME280;38802;50.198;19.796;2023-06-26T10:19:49;96174.51;;;26.06;43.69
52935;BME280;38802;50.198;19.796;2023-06-26T10:22:21;96173.09;;;25.88;42.54
52935;BME280;38802;50.198;19.796;2023-06-26T10:24:55;96169.81;;;25.59;42.84
52935;BME280;38802;50.198;19.796;2023-06-26T10:27:32;96167.84;;;25.66;43.23
52935;BME280;38802;50.198;19.796;2023-06-26T10:30:05;96165.04;;;25.85;43.23
52935;BME280;38802;50.198;19.796;2023-06-26T10:32:36;96156.23;;;26.00;42.26
52935;BME280;38802;50.198;19.796;2023-06-26T10:35:07;96150.98;;;26.12;43.10
52935;BME280;38802;50.198;19.796;2023-06-26T10:37:43;96148.52;;;26.28;43.01
52935;BME280;38802;50.198;19.796;2023-06-26T10:40:14;96150.23;;;26.45;43.34
52935;BME280;38802;50.198;19.796;2023-06-26T10:42:43;96147.70;;;26.58;43.24
52935;BME280;38802;50.198;19.796;2023-06-26T10:45:19;96148.64;;;26.49;42.84
52935;BME280;38802;50.198;19.796;2023-06-26T10:47:52;96147.98;;;26.26;43.29
52935;BME280;38802;50.198;19.796;2023-06-26T10:50:25;96149.10;;;26.04;43.15
52935;BME280;38802;50.198;19.796;2023-06-26T10:55:56;96150.27;;;25.52;42.82
52935;BME280;38802;50.198;19.796;2023-06-26T11:06:34;96142.90;;;25.52;44.00
52935;BME280;38802;50.198;19.796;2023-06-26T11:09:17;96140.76;;;25.64;43.63
52935;BME280;38802;50.198;19.796;2023-06-26T11:14:27;96141.30;;;25.82;43.53
52935;BME280;38802;50.198;19.796;2023-06-26T11:16:56;96136.21;;;25.91;43.15
52935;BME280;38802;50.198;19.796;2023-06-26T11:19:27;96137.96;;;25.86;42.86
52935;BME280;38802;50.198;19.796;2023-06-26T11:21:59;96138.31;;;25.91;43.38
52935;BME280;38802;50.198;19.796;2023-06-26T11:24:29;96146.48;;;25.91;42.86
52935;BME280;38802;50.198;19.796;2023-06-26T11:27:00;96144.05;;;25.85;42.83
52935;BME280;38802;50.198;19.796;2023-06-26T11:29:30;96141.98;;;25.89;43.32
52935;BME280;38802;50.198;19.796;2023-06-26T11:31:59;96137.00;;;26.02;43.61
52935;BME280;38802;50.198;19.796;2023-06-26T11:34:33;96140.23;;;25.94;43.34
52935;BME280;38802;50.198;19.796;2023-06-26T11:37:01;96139.66;;;25.82;43.59
52935;BME280;38802;50.198;19.796;2023-06-26T11:39:30;96144.90;;;25.73;43.78
52935;BME280;38802;50.198;19.796;2023-06-26T11:41:59;96139.56;;;25.73;43.87
52935;BME280;38802;50.198;19.796;2023-06-26T11:44:30;96135.34;;;25.83;43.71
52935;BME280;38802;50.198;19.796;2023-06-26T11:46:59;96133.04;;;25.86;43.76
52935;BME280;38802;50.198;19.796;2023-06-26T11:49:29;96135.38;;;25.73;43.16
52935;BME280;38802;50.198;19.796;2023-06-26T11:51:57;96135.84;;;25.57;43.76
52935;BME280;38802;50.198;19.796;2023-06-26T11:54:26;96135.44;;;25.45;44.18
52935;BME280;38802;50.198;19.796;2023-06-26T11:56:57;96138.13;;;25.31;44.40
52935;BME280;38802;50.198;19.796;2023-06-26T12:02:06;96136.93;;;25.14;44.70
52935;BME280;38802;50.198;19.796;2023-06-26T12:04:39;96134.02;;;25.21;44.44
52935;BME280;38802;50.198;19.796;2023-06-26T12:07:10;96133.94;;;25.27;44.69
52935;BME280;38802;50.198;19.796;2023-06-26T12:09:43;96130.87;;;25.35;44.73
52935;BME280;38802;50.198;19.796;2023-06-26T12:12:14;96127.15;;;25.45;44.88
52935;BME280;38802;50.198;19.796;2023-06-26T12:14:45;96122.92;;;25.55;44.87
52935;BME280;38802;50.198;19.796;2023-06-26T12:17:13;96121.60;;;25.62;45.06
52935;BME280;38802;50.198;19.796;2023-06-26T12:19:46;96122.15;;;25.65;45.04
52935;BME280;38802;50.198;19.796;2023-06-26T12:22:18;96121.17;;;25.73;44.91
52935;BME280;38802;50.198;19.796;2023-06-26T12:24:47;96112.92;;;25.73;44.71
52935;BME280;38802;50.198;19.796;2023-06-26T12:27:18;96112.61;;;25.77;44.52
52935;BME280;38802;50.198;19.796;2023-06-26T12:29:53;96108.55;;;25.77;44.49
52935;BME280;38802;50.198;19.796;2023-06-26T12:32:25;96106.96;;;25.80;44.52
52935;BME280;38802;50.198;19.796;2023-06-26T12:34:56;96108.55;;;25.81;44.17
52935;BME280;38802;50.198;19.796;2023-06-26T12:37:25;96104.24;;;25.70;43.45
52935;BME280;38802;50.198;19.796;2023-06-26T12:39:57;96102.15;;;25.65;43.73
52935;BME280;38802;50.198;19.796;2023-06-26T12:42:27;96102.61;;;25.64;44.12
52935;BME280;38802;50.198;19.796;2023-06-26T12:44:56;96097.36;;;25.70;44.55
52935;BME280;38802;50.198;19.796;2023-06-26T12:47:27;96100.65;;;25.76;44.82
52935;BME280;38802;50.198;19.796;2023-06-26T12:49:57;96097.65;;;25.79;44.90
52935;BME280;38802;50.198;19.796;2023-06-26T12:52:26;96094.21;;;25.81;44.72
52935;BME280;38802;50.198;19.796;2023-06-26T12:54:55;96092.75;;;25.83;44.18
52935;BME280;38802;50.198;19.796;2023-06-26T12:57:24;96092.80;;;25.83;44.01
52935;BME280;38802;50.198;19.796;2023-06-26T12:59:54;96088.17;;;25.78;43.90
52935;BME280;38802;50.198;19.796;2023-06-26T13:02:22;96089.30;;;25.80;42.72
52935;BME280;38802;50.198;19.796;2023-06-26T13:04:50;96086.55;;;25.79;43.26
52935;BME280;38802;50.198;19.796;2023-06-26T13:07:18;96079.85;;;25.86;43.79
52935;BME280;38802;50.198;19.796;2023-06-26T13:09:46;96077.13;;;25.96;43.43
52935;BME280;38802;50.198;19.796;2023-06-26T13:12:16;96077.58;;;25.99;43.49
52935;BME280;38802;50.198;19.796;2023-06-26T13:14:44;96077.37;;;26.00;43.33
52935;BME280;38802;50.198;19.796;2023-06-26T13:17:12;96077.95;;;25.99;43.49
52935;BME280;38802;50.198;19.796;2023-06-26T13:19:40;96072.59;;;26.00;43.26
52935;BME280;38802;50.198;19.796;2023-06-26T13:22:08;96072.33;;;25.98;42.72
52935;BME280;38802;50.198;19.796;2023-06-26T13:24:37;96072.94;;;25.99;42.99